Time;durP1;ratioP1;P1;durP2;ratioP2;P2;SDS_P1;SDS_P2;PMS_P1;PMS_P2;Temp;Humidity;BMP_temperature;BMP_pressure;BME280_temperature;BME280_humidity;BME280_pressure;Samples;Min_cycle;Max_cycle;Signal;HPM_P1;HPM_P2
2022/04/20 00:02:08;;;;;;;0.20;0.10;;;28.40;35.70;;;;;;5062384;28;20044;-63
2022/04/20 00:04:35;;;;;;;1.10;0.10;;;28.50;35.80;;;;;;5062569;28;20502;-67
2022/04/20 00:07:03;;;;;;;0.88;0.20;;;28.50;35.70;;;;;;5061607;28;20132;-55
2022/04/20 00:09:31;;;;;;;0.43;0.17;;;28.50;35.70;;;;;;5044927;28;20131;-54
2022/04/20 00:11:58;;;;;;;1.13;0.70;;;28.50;35.60;;;;;;5063700;28;20382;-59
2022/04/20 00:14:26;;;;;;;1.35;0.35;;;28.50;35.70;;;;;;5063574;28;20052;-53
2022/04/20 00:16:54;;;;;;;0.47;0.20;;;28.60;35.60;;;;;;5061565;28;20033;-54
2022/04/20 00:19:21;;;;;;;1.80;0.30;;;28.60;35.60;;;;;;5059306;28;20464;-49
2022/04/20 00:21:49;;;;;;;2.90;0.50;;;28.50;35.40;;;;;;5062336;28;20033;-66
2022/04/20 00:24:16;;;;;;;0.68;0.20;;;28.50;35.40;;;;;;5053363;28;20156;-64
2022/04/20 00:26:43;;;;;;;1.65;0.10;;;28.50;35.40;;;;;;5064695;28;20068;-54
2022/04/20 00:29:12;;;;;;;1.42;0.68;;;28.50;35.40;;;;;;5063141;28;20114;-65
2022/04/20 00:31:40;;;;;;;6.90;0.30;;;28.50;35.50;;;;;;5064508;28;20148;-65
2022/04/20 00:34:08;;;;;;;1.13;0.20;;;28.50;35.60;;;;;;5062798;28;20045;-64
2022/04/20 00:36:35;;;;;;;0.68;0.20;;;28.50;35.50;;;;;;5065064;28;20036;-66
2022/04/20 00:39:03;;;;;;;1.58;0.40;;;28.50;35.50;;;;;;5046276;28;20884;-65
2022/04/20 00:41:31;;;;;;;0.75;0.43;;;28.50;35.60;;;;;;5065947;28;20056;-66
2022/04/20 00:43:59;;;;;;;0.82;0.10;;;28.40;35.50;;;;;;5062309;28;20052;-55
2022/04/20 00:46:27;;;;;;;2.25;0.30;;;28.40;35.60;;;;;;5062332;28;20067;-55
2022/04/20 00:48:56;;;;;;;1.00;0.20;;;28.40;35.60;;;;;;5062209;28;20040;-57
2022/04/20 00:51:25;;;;;;;0.85;0.20;;;28.40;35.70;;;;;;5043985;28;20056;-73
2022/04/20 00:53:52;;;;;;;1.80;1.00;;;28.30;35.70;;;;;;5073240;28;20044;-72
2022/04/20 00:56:20;;;;;;;0.98;0.30;;;28.40;35.90;;;;;;5051982;28;20051;-72
2022/04/20 00:58:48;;;;;;;0.65;0.47;;;28.30;35.90;;;;;;5067034;28;20471;-75
2022/04/20 01:01:16;;;;;;;2.53;0.57;;;28.30;36.00;;;;;;5053183;28;20045;-75
2022/04/20 01:03:45;;;;;;;0.88;0.45;;;28.20;36.00;;;;;;5072018;28;20048;-72
2022/04/20 01:06:28;;;;;;;1.63;0.40;;;28.20;36.00;;;;;;5056553;28;20514;-72
2022/04/20 01:09:14;;;;;;;1.00;0.20;;;28.20;36.10;;;;;;5074835;28;20041;-74
2022/04/20 01:11:41;;;;;;;2.45;0.20;;;28.10;36.10;;;;;;5058219;28;20048;-74
2022/04/20 01:14:22;;;;;;;3.00;0.43;;;28.10;36.10;;;;;;5054486;28;20069;-72
2022/04/20 01:17:10;;;;;;;1.67;0.40;;;28.00;36.10;;;;;;5011777;28;20050;-74
2022/04/20 01:19:55;;;;;;;1.00;0.20;;;27.90;36.10;;;;;;5007944;28;20532;-72
2022/04/20 01:22:46;;;;;;;0.50;0.50;;;27.90;36.10;;;;;;5008000;28;20058;-73
2022/04/20 01:25:22;;;;;;;0.95;0.75;;;27.90;36.20;;;;;;5002994;28;20049;-74
2022/04/20 01:28:05;;;;;;;1.65;0.57;;;27.80;36.20;;;;;;4994954;28;20096;-72
2022/04/20 01:30:55;;;;;;;4.97;0.77;;;27.80;36.30;;;;;;5000387;28;20292;-73
2022/04/20 01:33:35;;;;;;;3.33;1.05;;;27.80;36.40;;;;;;5003420;28;20057;-73
2022/04/20 01:36:03;;;;;;;3.85;1.02;;;27.70;36.50;;;;;;4999897;28;20116;-73
2022/04/20 01:38:32;;;;;;;0.60;0.30;;;27.70;36.50;;;;;;5011311;28;20044;-74
2022/04/20 01:40:59;;;;;;;2.65;0.90;;;27.70;36.50;;;;;;5016862;28;20056;-70
2022/04/20 01:43:26;;;;;;;0.85;0.32;;;27.70;36.50;;;;;;4995884;28;20046;-72
2022/04/20 01:46:16;;;;;;;2.47;0.38;;;27.70;36.50;;;;;;5010567;28;20049;-74
2022/04/20 01:49:10;;;;;;;3.13;0.85;;;27.70;36.60;;;;;;5003208;28;20637;-75
2022/04/20 01:51:51;;;;;;;6.97;0.70;;;27.60;36.60;;;;;;4997178;28;20144;-74
2022/04/20 01:54:41;;;;;;;3.55;0.30;;;27.60;36.60;;;;;;5015723;28;20053;-73
2022/04/20 01:57:29;;;;;;;4.35;1.00;;;27.60;36.70;;;;;;5052018;28;20079;-75
2022/04/20 02:00:19;;;;;;;2.55;0.60;;;27.50;36.70;;;;;;5069736;28;20098;-75
2022/04/20 02:03:15;;;;;;;2.03;0.30;;;27.50;36.80;;;;;;5071535;28;20067;-75
2022/04/20 02:05:48;;;;;;;2.47;0.77;;;27.50;36.90;;;;;;5055210;28;20045;-75
2022/04/20 02:08:44;;;;;;;2.40;1.65;;;27.50;37.00;;;;;;5053894;28;20052;-74
2022/04/20 02:11:18;;;;;;;1.85;0.47;;;27.40;36.90;;;;;;5056786;28;20082;-72
2022/04/20 02:13:45;;;;;;;5.10;0.80;;;27.40;37.00;;;;;;5067527;28;20048;-64
2022/04/20 02:16:16;;;;;;;2.20;1.02;;;27.40;37.10;;;;;;5053237;28;20093;-63
2022/04/20 02:19:06;;;;;;;3.97;2.72;;;27.30;36.20;;;;;;4984884;28;20085;-63
2022/04/20 02:21:39;;;;;;;3.90;2.63;;;27.20;35.90;;;;;;4982763;28;20062;-63
2022/04/20 02:24:06;;;;;;;5.10;3.30;;;27.10;35.70;;;;;;4982719;28;20078;-62
2022/04/20 02:26:35;;;;;;;7.20;2.88;;;27.10;35.60;;;;;;4982850;28;20042;-62
2022/04/20 02:29:02;;;;;;;5.78;3.72;;;27.00;35.40;;;;;;4981568;28;20050;-63
2022/04/20 02:31:29;;;;;;;8.20;4.30;;;26.90;35.30;;;;;;4965307;28;20443;-63
2022/04/20 02:33:56;;;;;;;5.03;3.55;;;26.80;35.20;;;;;;4964569;28;20135;-64
2022/04/20 02:36:23;;;;;;;5.85;4.15;;;26.80;35.10;;;;;;4979133;28;20066;-63
2022/04/20 02:38:51;;;;;;;5.22;4.82;;;26.70;35.00;;;;;;4981678;28;20081;-64
2022/04/20 02:41:18;;;;;;;8.35;4.32;;;26.60;35.00;;;;;;4981062;28;20056;-63
2022/04/20 02:43:47;;;;;;;6.80;3.80;;;26.50;34.90;;;;;;4964788;28;20538;-64
2022/04/20 02:46:14;;;;;;;9.57;5.18;;;26.50;34.80;;;;;;4965652;28;20069;-64
2022/04/20 02:48:42;;;;;;;8.88;5.82;;;26.40;34.70;;;;;;4966113;28;20061;-63
2022/04/20 02:51:09;;;;;;;6.82;5.53;;;26.40;34.70;;;;;;4982285;28;20054;-64
2022/04/20 02:53:36;;;;;;;7.45;5.88;;;26.30;34.60;;;;;;4981111;28;20158;-63
2022/04/20 02:56:04;;;;;;;6.20;5.07;;;26.30;34.60;;;;;;4997668;28;20599;-63
2022/04/20 02:58:31;;;;;;;8.57;4.32;;;26.20;34.60;;;;;;5045811;28;20098;-63
2022/04/20 03:01:01;;;;;;;6.20;5.63;;;26.20;34.60;;;;;;5045755;28;20076;-64
2022/04/20 03:03:33;;;;;;;9.73;5.32;;;26.10;34.60;;;;;;5045132;28;20048;-61
2022/04/20 03:06:11;;;;;;;6.15;5.57;;;26.10;34.60;;;;;;5045277;28;20048;-61
2022/04/20 03:08:38;;;;;;;8.30;6.00;;;26.00;34.50;;;;;;5045438;28;20068;-60
2022/04/20 03:11:05;;;;;;;9.18;5.97;;;26.00;34.50;;;;;;5045235;28;20758;-61
2022/04/20 03:13:33;;;;;;;7.22;5.82;;;26.00;34.60;;;;;;5045276;28;20467;-61
2022/04/20 03:16:02;;;;;;;9.82;6.25;;;25.90;34.60;;;;;;5045189;28;20041;-61
2022/04/20 03:18:32;;;;;;;9.57;6.00;;;25.90;34.60;;;;;;5045757;28;20040;-61
2022/04/20 03:21:03;;;;;;;14.15;6.32;;;25.80;34.60;;;;;;5045602;28;20044;-61
2022/04/20 03:23:30;;;;;;;8.52;4.97;;;25.80;35.30;;;;;;5042965;28;20106;-61
2022/04/20 03:26:03;;;;;;;10.82;6.53;;;25.80;34.70;;;;;;5059268;28;20582;-61
2022/04/20 03:28:48;;;;;;;;;;;25.70;34.70;;;;;;5063595;28;20052;-60
2022/04/20 03:31:18;;;;;;;7.75;5.50;;;25.60;34.70;;;;;;5045545;28;20415;-60
2022/04/20 03:33:45;;;;;;;7.53;5.82;;;25.60;35.00;;;;;;5044871;28;20478;-60
2022/04/20 03:36:12;;;;;;;8.90;6.70;;;25.60;34.90;;;;;;5028319;28;20048;-60
2022/04/20 03:38:39;;;;;;;9.13;6.72;;;25.60;34.90;;;;;;5064689;28;20045;-61
2022/04/20 03:41:06;;;;;;;9.20;7.18;;;25.50;34.80;;;;;;5045408;28;20055;-61
2022/04/20 03:43:33;;;;;;;8.35;6.20;;;25.50;34.80;;;;;;5044873;28;20044;-61
2022/04/20 03:46:00;;;;;;;6.78;6.15;;;25.50;34.80;;;;;;5062759;28;20098;-60
2022/04/20 03:48:29;;;;;;;7.07;6.15;;;25.50;34.80;;;;;;5045263;28;20040;-61
2022/04/20 03:50:56;;;;;;;8.45;5.70;;;25.50;34.80;;;;;;5063867;28;20614;-61
2022/04/20 03:53:23;;;;;;;11.15;8.13;;;25.50;35.50;;;;;;5063022;28;20048;-60
2022/04/20 03:55:54;;;;;;;8.82;6.50;;;25.40;34.80;;;;;;5044864;28;20056;-60
2022/04/20 03:58:21;;;;;;;8.45;7.50;;;25.40;34.80;;;;;;5047530;28;20469;-61
2022/04/20 04:00:49;;;;;;;8.85;7.50;;;25.40;34.80;;;;;;5045369;28;20036;-61
2022/04/20 04:03:17;;;;;;;10.13;7.03;;;25.40;34.80;;;;;;5045047;28;20128;-61
2022/04/20 04:05:46;;;;;;;12.30;6.38;;;25.30;35.30;;;;;;5046955;28;20044;-61
2022/04/20 04:08:24;;;;;;;9.57;6.55;;;25.30;34.70;;;;;;5045725;28;20048;-61
2022/04/20 04:10:51;;;;;;;8.68;7.32;;;25.40;34.70;;;;;;5049370;28;20741;-62
2022/04/20 04:13:19;;;;;;;11.43;8.35;;;25.40;34.70;;;;;;5042766;28;20086;-61
2022/04/20 04:15:52;;;;;;;9.15;6.38;;;25.30;34.70;;;;;;5054759;28;20044;-62
2022/04/20 04:18:20;;;;;;;7.63;6.30;;;25.30;34.80;;;;;;5044901;28;20035;-62
2022/04/20 04:20:51;;;;;;;11.07;6.53;;;25.30;34.80;;;;;;5043085;28;20514;-62
2022/04/20 04:23:18;;;;;;;12.70;7.32;;;25.30;34.80;;;;;;5058888;28;20072;-63
2022/04/20 04:26:11;;;;;;;9.15;7.43;;;25.30;34.90;;;;;;5043975;28;20537;-61
2022/04/20 04:28:58;;;;;;;6.55;5.68;;;25.20;35.00;;;;;;5062964;28;20594;-61
2022/04/20 04:31:26;;;;;;;12.13;8.18;;;25.20;35.10;;;;;;5048952;28;20051;-61
2022/04/20 04:33:55;;;;;;;10.90;7.72;;;25.20;35.00;;;;;;5048474;28;20048;-61
2022/04/20 04:36:23;;;;;;;8.32;7.10;;;25.20;35.10;;;;;;5055456;28;20628;-61
2022/04/20 04:38:56;;;;;;;9.82;7.15;;;25.20;35.10;;;;;;5045749;28;20437;-63
2022/04/20 04:41:29;;;;;;;13.02;8.05;;;25.10;35.10;;;;;;5049331;28;20044;-62
2022/04/20 04:43:59;;;;;;;9.98;7.32;;;25.10;35.10;;;;;;5047438;28;20089;-61
2022/04/20 04:49:16;;;;;;;10.52;7.15;;;25.10;35.20;;;;;;5056031;28;20048;-61
2022/04/20 04:51:45;;;;;;;11.65;7.43;;;25.10;35.30;;;;;;5047834;28;20055;-61
2022/04/20 04:54:16;;;;;;;8.82;7.43;;;25.10;35.30;;;;;;5047491;28;20778;-62
2022/04/20 04:56:43;;;;;;;10.07;7.35;;;25.00;35.30;;;;;;5049677;28;20044;-61
2022/04/20 04:59:10;;;;;;;11.85;8.05;;;25.00;35.30;;;;;;5066047;28;20048;-61
2022/04/20 05:01:37;;;;;;;13.60;8.48;;;25.00;35.30;;;;;;5031149;28;20048;-61
2022/04/20 05:04:11;;;;;;;8.57;7.45;;;25.00;35.20;;;;;;5047724;28;20045;-61
2022/04/20 05:06:39;;;;;;;9.68;7.50;;;25.00;35.20;;;;;;5047107;28;20043;-62
2022/04/20 05:09:17;;;;;;;8.57;7.60;;;25.00;35.10;;;;;;5046971;28;20415;-62
2022/04/20 05:11:48;;;;;;;11.45;8.15;;;25.00;35.00;;;;;;5049265;28;20044;-62
2022/04/20 05:14:16;;;;;;;8.38;7.53;;;24.90;35.00;;;;;;5063810;28;20044;-62
2022/04/20 05:16:47;;;;;;;11.63;7.53;;;24.90;35.00;;;;;;5047514;28;20128;-62
2022/04/20 05:19:16;;;;;;;8.45;7.07;;;24.90;35.00;;;;;;5047113;28;20048;-62
2022/04/20 05:21:44;;;;;;;11.52;8.02;;;24.90;34.90;;;;;;5047102;28;20059;-62
2022/04/20 05:24:13;;;;;;;12.25;8.45;;;24.90;34.80;;;;;;5047010;28;20058;-63
2022/04/20 05:26:42;;;;;;;10.13;8.27;;;24.90;34.80;;;;;;5067233;28;20162;-62
2022/04/20 05:29:09;;;;;;;8.73;7.45;;;24.90;34.80;;;;;;5047121;28;20055;-62
2022/04/20 05:32:07;;;;;;;10.60;8.35;;;24.90;34.80;;;;;;5053221;28;20040;-63
2022/04/20 05:34:35;;;;;;;9.65;7.68;;;24.90;34.80;;;;;;5046509;28;20520;-63
2022/04/20 05:42:39;;;;;;;13.65;8.88;;;24.90;34.70;;;;;;5028742;28;20128;-63
2022/04/20 05:45:09;;;;;;;10.10;7.32;;;24.90;34.70;;;;;;5047452;28;20040;-63
2022/04/20 05:47:38;;;;;;;10.90;8.25;;;24.90;34.60;;;;;;5047231;28;20127;-63
2022/04/20 05:50:07;;;;;;;12.55;8.45;;;24.90;34.60;;;;;;5046920;28;20145;-63
2022/04/20 05:52:35;;;;;;;12.30;7.95;;;24.90;34.50;;;;;;5046812;28;20053;-63
2022/04/20 05:55:02;;;;;;;9.90;8.10;;;24.90;34.50;;;;;;5046728;28;20106;-64
2022/04/20 05:57:30;;;;;;;9.50;8.20;;;24.90;34.50;;;;;;5047044;28;20897;-63
2022/04/20 05:59:58;;;;;;;12.45;8.75;;;24.90;34.40;;;;;;5051687;28;20055;-63
2022/04/20 06:02:25;;;;;;;12.00;9.13;;;24.90;34.40;;;;;;5048153;28;20575;-62
2022/04/20 06:04:52;;;;;;;13.80;8.82;;;24.90;34.50;;;;;;5061883;28;20133;-63
2022/04/20 06:07:46;;;;;;;12.65;9.18;;;24.90;34.50;;;;;;5059830;28;20047;-63
2022/04/20 06:10:37;;;;;;;15.43;10.05;;;24.90;34.60;;;;;;5045731;28;20535;-62
2022/04/20 06:13:09;;;;;;;10.85;8.52;;;24.90;34.60;;;;;;5061770;28;20779;-63
2022/04/20 06:15:38;;;;;;;12.82;9.57;;;24.90;34.70;;;;;;5061698;28;20041;-62
2022/04/20 06:18:26;;;;;;;11.85;8.90;;;24.90;34.60;;;;;;5043241;28;20033;-62
2022/04/20 06:21:14;;;;;;;12.65;8.00;;;24.90;34.60;;;;;;5048101;28;20056;-60
2022/04/20 06:24:00;;;;;;;12.02;9.48;;;24.90;34.60;;;;;;5061252;28;20037;-61
2022/04/20 06:26:42;;;;;;;10.80;8.05;;;24.90;34.80;;;;;;5064705;28;20078;-61
2022/04/20 06:29:27;;;;;;;7.30;6.38;;;24.90;34.90;;;;;;5065017;28;20044;-53
2022/04/20 06:32:23;;;;;;;13.45;7.22;;;24.90;35.50;;;;;;5061931;28;20048;-60
2022/04/20 06:35:13;;;;;;;10.77;6.65;;;25.00;35.80;;;;;;5060785;28;20506;-59
2022/04/20 06:38:01;;;;;;;9.10;5.22;;;25.10;36.20;;;;;;5069385;28;20088;-59
2022/04/20 06:40:39;;;;;;;13.65;6.28;;;25.20;36.30;;;;;;5048728;28;20421;-59
2022/04/20 06:43:36;;;;;;;11.30;4.78;;;25.20;36.50;;;;;;5015004;28;20570;-60
2022/04/20 06:46:26;;;;;;;8.75;4.35;;;25.20;36.70;;;;;;5001252;28;20074;-60
2022/04/20 06:49:03;;;;;;;10.40;4.72;;;25.20;36.80;;;;;;5009600;28;20067;-60
2022/04/20 07:00:22;;;;;;;6.43;2.42;;;25.10;37.00;;;;;;4923724;29;20085;-59
2022/04/20 07:03:06;;;;;;;5.18;2.95;;;25.10;37.00;;;;;;4923420;29;20048;-59
2022/04/20 07:05:47;;;;;;;5.00;2.67;;;25.10;37.00;;;;;;4914691;29;20048;-59
2022/04/20 07:08:27;;;;;;;4.75;2.50;;;25.10;37.10;;;;;;4902489;29;20056;-57
2022/04/20 07:11:23;;;;;;;4.57;1.88;;;25.00;37.10;;;;;;4910524;29;20047;-57
2022/04/20 07:13:55;;;;;;;6.13;1.75;;;25.00;37.10;;;;;;4916180;29;20056;-58
2022/04/20 07:16:23;;;;;;;3.05;1.63;;;25.00;37.20;;;;;;4916171;29;20052;-58
2022/04/20 07:19:02;;;;;;;3.13;1.50;;;25.00;37.20;;;;;;4900407;28;20044;-59
2022/04/20 07:21:41;;;;;;;4.35;1.50;;;25.00;37.20;;;;;;4971836;28;20042;-58
2022/04/20 07:24:29;;;;;;;4.15;1.80;;;25.00;37.20;;;;;;4969987;28;20458;-59
2022/04/20 07:27:16;;;;;;;1.92;1.13;;;25.00;37.20;;;;;;4969737;28;20054;-59
2022/04/20 07:30:05;;;;;;;3.13;1.48;;;25.00;37.20;;;;;;4964459;28;20133;-59
2022/04/20 07:33:07;;;;;;;4.35;1.98;;;25.00;37.20;;;;;;5046648;28;20037;-59
2022/04/20 07:35:40;;;;;;;5.18;1.33;;;25.00;37.20;;;;;;5033726;28;20389;-59
2022/04/20 07:38:29;;;;;;;3.17;1.63;;;25.10;37.10;;;;;;5067434;28;20057;-59
2022/04/20 07:41:15;;;;;;;1.75;1.48;;;25.10;37.70;;;;;;5066653;28;20495;-57
2022/04/20 07:43:57;;;;;;;6.63;1.20;;;25.10;37.00;;;;;;5048130;28;20046;-57
2022/04/20 07:46:51;;;;;;;7.18;1.38;;;25.10;37.00;;;;;;5061417;28;20048;-59
2022/04/20 07:52:25;;;;;;;1.33;1.00;;;25.10;36.90;;;;;;5056349;28;20072;-59
2022/04/20 07:55:11;;;;;;;2.60;0.90;;;25.10;36.90;;;;;;5048038;28;20047;-59
2022/04/20 07:58:00;;;;;;;6.03;1.40;;;25.10;36.90;;;;;;5065761;28;20099;-57
2022/04/20 08:00:53;;;;;;;3.58;1.17;;;25.10;36.90;;;;;;4983714;28;20044;-59
2022/04/20 08:03:35;;;;;;;3.75;1.10;;;25.10;36.90;;;;;;4984350;28;20042;-59
2022/04/20 08:06:04;;;;;;;1.85;1.27;;;25.20;36.90;;;;;;4968410;28;20463;-57
2022/04/20 08:08:35;;;;;;;2.30;1.02;;;25.20;36.80;;;;;;4960051;28;20035;-59
2022/04/20 08:11:04;;;;;;;6.28;0.90;;;25.20;36.70;;;;;;4968079;28;20046;-58
2022/04/20 08:16:44;;;;;;;2.60;0.73;;;25.20;36.70;;;;;;4984130;28;20256;-58
2022/04/20 08:19:47;;;;;;;2.15;0.77;;;25.30;36.90;;;;;;4984217;28;20042;-59
2022/04/20 08:22:24;;;;;;;3.03;0.65;;;25.30;36.80;;;;;;4967987;28;20226;-59
2022/04/20 08:24:51;;;;;;;2.45;0.80;;;25.30;36.70;;;;;;4984602;28;20050;-59
2022/04/20 08:27:20;;;;;;;2.70;0.65;;;25.30;36.70;;;;;;4984732;28;20547;-59
2022/04/20 08:29:48;;;;;;;1.75;0.75;;;25.30;36.70;;;;;;4985623;28;20058;-58
2022/04/20 08:32:16;;;;;;;1.45;0.50;;;25.30;36.50;;;;;;4984232;28;20054;-59
2022/04/20 08:34:44;;;;;;;0.80;0.80;;;25.40;36.60;;;;;;4984434;28;20469;-59
2022/04/20 08:37:12;;;;;;;1.85;0.40;;;25.40;36.50;;;;;;5002773;28;20048;-60
2022/04/20 08:39:39;;;;;;;0.98;0.77;;;25.40;36.40;;;;;;5066098;28;20052;-60
2022/04/20 08:42:09;;;;;;;1.38;0.60;;;25.40;36.40;;;;;;5066686;28;20059;-59
2022/04/20 08:44:43;;;;;;;3.10;0.47;;;25.50;36.50;;;;;;5067455;28;20048;-59
2022/04/20 08:47:16;;;;;;;1.08;0.68;;;25.50;36.50;;;;;;5065896;28;20041;-59
2022/04/20 08:49:43;;;;;;;0.93;0.45;;;25.50;36.40;;;;;;5065804;28;20497;-59
2022/04/20 08:54:56;;;;;;;0.47;0.30;;;25.50;36.20;;;;;;5065850;28;20136;-60
2022/04/20 08:57:25;;;;;;;0.52;0.50;;;25.50;36.30;;;;;;5049831;28;20127;-59
2022/04/20 08:59:54;;;;;;;1.98;0.43;;;25.50;36.20;;;;;;5063647;28;20048;-59
2022/04/20 09:02:24;;;;;;;0.70;0.30;;;25.50;36.20;;;;;;5066448;28;20041;-59
2022/04/20 09:04:52;;;;;;;1.52;0.60;;;25.60;36.20;;;;;;5065810;28;20571;-60
2022/04/20 09:07:19;;;;;;;1.33;0.63;;;25.60;36.20;;;;;;5047392;28;20040;-59
2022/04/20 09:09:47;;;;;;;2.40;0.88;;;25.60;36.00;;;;;;5066037;28;20679;-59
2022/04/20 09:12:18;;;;;;;1.40;0.60;;;25.60;36.00;;;;;;5065576;28;20044;-60
2022/04/20 09:14:48;;;;;;;1.15;0.32;;;25.60;35.90;;;;;;5071186;28;20040;-59
2022/04/20 09:17:18;;;;;;;1.05;0.65;;;25.60;36.00;;;;;;5069219;28;20048;-60
2022/04/20 09:19:46;;;;;;;1.55;0.47;;;25.60;35.80;;;;;;5068961;28;20055;-58
2022/04/20 09:22:24;;;;;;;0.68;0.68;;;25.60;35.80;;;;;;5068917;28;20488;-60
2022/04/20 09:24:59;;;;;;;2.25;0.60;;;25.70;35.80;;;;;;5069190;28;20110;-58
2022/04/20 09:27:27;;;;;;;3.40;0.40;;;25.70;35.80;;;;;;5052870;28;20041;-60
2022/04/20 09:29:56;;;;;;;0.47;0.47;;;25.70;35.80;;;;;;5070888;28;20534;-60
2022/04/20 09:32:35;;;;;;;2.45;0.50;;;25.70;35.80;;;;;;5069555;28;20102;-60
2022/04/20 09:35:05;;;;;;;1.67;0.20;;;25.70;35.70;;;;;;5068714;28;20040;-59
2022/04/20 09:37:33;;;;;;;1.15;0.68;;;25.70;35.70;;;;;;5068680;28;20104;-59
2022/04/20 09:40:16;;;;;;;0.98;0.47;;;25.70;35.70;;;;;;5051074;28;20060;-59
2022/04/20 09:43:00;;;;;;;3.33;0.40;;;25.70;35.70;;;;;;5068746;28;20044;-59
2022/04/20 09:45:28;;;;;;;1.50;0.40;;;25.70;35.50;;;;;;5053316;28;20568;-59
2022/04/20 09:50:42;;;;;;;1.00;0.60;;;25.70;35.50;;;;;;5069188;28;20076;-58
2022/04/20 09:53:12;;;;;;;0.60;0.40;;;25.70;35.50;;;;;;5068379;28;20048;-59
2022/04/20 09:55:41;;;;;;;2.25;0.52;;;25.70;35.50;;;;;;5062254;28;20049;-59
2022/04/20 09:58:15;;;;;;;1.40;0.30;;;25.70;35.30;;;;;;5058825;28;20113;-59
2022/04/20 10:00:45;;;;;;;2.60;0.50;;;25.80;35.50;;;;;;5069864;28;20046;-59
2022/04/20 10:03:24;;;;;;;0.93;0.20;;;25.70;35.40;;;;;;5068576;28;20037;-60
2022/04/20 10:05:51;;;;;;;0.88;0.25;;;25.80;35.40;;;;;;5069961;28;20064;-59
2022/04/20 10:08:19;;;;;;;0.65;0.30;;;25.80;35.50;;;;;;5067857;28;20041;-59
2022/04/20 10:10:47;;;;;;;0.50;0.35;;;25.70;35.40;;;;;;5067809;28;20058;-59
2022/04/20 10:13:15;;;;;;;1.50;0.65;;;25.80;35.30;;;;;;5068286;28;20036;-58
2022/04/20 10:18:31;;;;;;;2.17;0.30;;;25.80;35.40;;;;;;5053019;28;20028;-59
2022/04/20 10:21:00;;;;;;;0.52;0.50;;;25.80;35.40;;;;;;5050834;28;20052;-59
2022/04/20 10:23:29;;;;;;;0.80;0.25;;;25.80;35.40;;;;;;5068112;28;20049;-60
2022/04/20 10:25:58;;;;;;;1.85;0.30;;;25.80;35.30;;;;;;5067317;28;20049;-60
2022/04/20 10:28:30;;;;;;;1.63;0.30;;;25.80;35.30;;;;;;5067788;28;20787;-59
2022/04/20 10:31:14;;;;;;;0.60;0.40;;;25.80;35.40;;;;;;5067731;28;20385;-59
2022/04/20 10:33:44;;;;;;;0.85;0.73;;;25.90;35.30;;;;;;5052629;28;20509;-59
2022/04/20 10:36:34;;;;;;;1.10;0.10;;;25.90;35.40;;;;;;5051924;28;20047;-60
2022/04/20 10:39:18;;;;;;;0.50;0.10;;;25.80;35.20;;;;;;5049768;28;20045;-60
2022/04/20 10:42:20;;;;;;;2.85;0.20;;;25.90;35.20;;;;;;5035304;28;20131;-59
2022/04/20 10:45:03;;;;;;;0.40;0.20;;;25.90;35.20;;;;;;5051640;28;20052;-59
2022/04/20 10:47:33;;;;;;;0.20;0.20;;;25.90;35.20;;;;;;5068930;28;20105;-58
2022/04/20 10:50:16;;;;;;;0.32;0.20;;;25.90;35.30;;;;;;5067575;28;20033;-59
2022/04/20 10:52:48;;;;;;;1.17;0.10;;;25.90;35.20;;;;;;5066994;28;20064;-59
2022/04/20 10:55:15;;;;;;;0.40;0.17;;;25.90;35.20;;;;;;5049091;28;20036;-59
2022/04/20 10:57:45;;;;;;;0.70;0.20;;;25.90;35.20;;;;;;5067114;28;20425;-59
2022/04/20 11:00:36;;;;;;;0.40;0.17;;;26.00;35.30;;;;;;5049581;28;20445;-58
2022/04/20 11:03:05;;;;;;;1.90;0.25;;;26.00;35.90;;;;;;5064910;28;20413;-58
2022/04/20 11:05:49;;;;;;;1.55;0.10;;;26.00;35.30;;;;;;5068739;28;20040;-60
2022/04/20 11:08:17;;;;;;;0.73;0.10;;;26.00;35.30;;;;;;5066487;28;20059;-59
2022/04/20 11:18:38;;;;;;;0.65;0.30;;;26.00;35.30;;;;;;5067360;28;20044;-58
2022/04/20 11:19:20;;;;;;;1.65;0.13;;;26.10;35.30;;;;;;5057580;28;20562;-59
2022/04/20 11:22:09;;;;;;;3.05;0.45;;;26.10;35.30;;;;;;5048808;28;20090;-59
2022/04/20 11:24:36;;;;;;;0.70;0.10;;;26.20;35.40;;;;;;5065012;28;20039;-56
2022/04/20 11:27:04;;;;;;;2.25;0.75;;;26.20;35.40;;;;;;5065895;28;20165;-51
2022/04/20 11:29:32;;;;;;;2.03;0.60;;;26.20;34.90;;;;;;5044269;28;20135;-64
2022/04/20 11:32:02;;;;;;;5.07;0.40;;;26.20;34.70;;;;;;5061721;28;20081;-50
2022/04/20 11:34:41;;;;;;;1.55;0.60;;;26.20;34.80;;;;;;5042199;28;20041;-47
2022/04/20 11:37:10;;;;;;;4.80;0.55;;;26.20;34.50;;;;;;5059655;28;20567;-52
2022/04/20 11:39:37;;;;;;;2.45;0.40;;;26.30;33.90;;;;;;5029885;28;20047;-47
2022/04/20 11:42:06;;;;;;;1.25;0.40;;;26.40;33.40;;;;;;5062011;28;20117;-47
2022/04/20 11:44:39;;;;;;;3.85;0.70;;;26.50;32.90;;;;;;5063992;28;20043;-56
2022/04/20 11:47:15;;;;;;;1.05;0.65;;;26.60;32.60;;;;;;5044776;28;20044;-56
2022/04/20 11:49:45;;;;;;;1.52;0.30;;;26.70;32.00;;;;;;5063065;28;20051;-55
2022/04/20 11:52:21;;;;;;;1.95;0.20;;;26.80;31.70;;;;;;5044552;28;20063;-57
2022/04/20 11:55:05;;;;;;;2.25;0.50;;;26.90;31.30;;;;;;5044991;28;20049;-62
2022/04/20 11:57:32;;;;;;;4.03;0.50;;;27.00;31.10;;;;;;5051716;28;20544;-62
2022/04/20 12:00:00;;;;;;;2.28;0.90;;;27.10;30.70;;;;;;5059393;28;20727;-61
2022/04/20 12:02:27;;;;;;;9.63;0.45;;;27.20;30.90;;;;;;5064241;28;20056;-59
2022/04/20 12:05:07;;;;;;;6.18;0.60;;;27.30;30.00;;;;;;5044817;28;20048;-57
2022/04/20 12:07:36;;;;;;;5.05;0.28;;;27.40;29.90;;;;;;5061742;28;20316;-65
2022/04/20 12:10:04;;;;;;;1.75;0.75;;;27.40;29.50;;;;;;5058566;28;20038;-65
2022/04/20 12:12:33;;;;;;;4.22;0.63;;;27.50;29.10;;;;;;5045192;28;20075;-49
2022/04/20 12:15:07;;;;;;;4.05;0.20;;;27.60;28.80;;;;;;5063233;28;20041;-60
2022/04/20 12:17:35;;;;;;;2.13;0.43;;;27.70;28.50;;;;;;5062898;28;20048;-58
2022/04/20 12:20:03;;;;;;;1.55;0.57;;;27.80;28.30;;;;;;5060389;28;20056;-65
2022/04/20 12:22:30;;;;;;;2.58;0.30;;;27.80;28.40;;;;;;5062352;28;20059;-64
2022/04/20 12:25:07;;;;;;;2.78;0.10;;;27.90;28.10;;;;;;5061943;28;20524;-64
2022/04/20 12:27:51;;;;;;;1.85;0.25;;;28.00;27.90;;;;;;5053203;28;20060;-66
2022/04/20 12:30:37;;;;;;;1.33;0.30;;;28.10;27.80;;;;;;5061861;28;20044;-64
2022/04/20 12:33:05;;;;;;;0.90;0.30;;;28.20;27.70;;;;;;5059970;28;20068;-64
2022/04/20 12:35:33;;;;;;;3.03;0.20;;;28.20;27.50;;;;;;5062947;28;20145;-63
2022/04/20 12:38:12;;;;;;;1.02;0.28;;;28.30;27.40;;;;;;5042885;28;20645;-64
2022/04/20 12:40:41;;;;;;;3.33;0.73;;;28.40;27.30;;;;;;5062682;28;20048;-63
2022/04/20 12:43:09;;;;;;;0.20;0.20;;;28.50;27.20;;;;;;5062475;28;20036;-63
2022/04/20 12:45:40;;;;;;;1.55;0.10;;;28.50;27.00;;;;;;5044172;28;20045;-65
2022/04/20 12:48:11;;;;;;;2.42;0.20;;;28.60;26.80;;;;;;5063610;28;20395;-64
2022/04/20 12:50:38;;;;;;;4.10;0.20;;;28.70;26.80;;;;;;5067158;28;20479;-63
2022/04/20 12:53:07;;;;;;;4.85;0.10;;;28.70;26.60;;;;;;5066263;28;20052;-63
2022/04/20 12:55:41;;;;;;;1.85;0.20;;;28.80;26.60;;;;;;5060945;28;20129;-63
2022/04/20 13:03:42;;;;;;;1.35;0.52;;;29.00;26.10;;;;;;5009455;28;20615;-64
2022/04/20 13:06:13;;;;;;;0.10;0.10;;;29.00;26.10;;;;;;5021364;28;20053;-64
2022/04/20 13:08:45;;;;;;;1.10;0.43;;;29.10;25.90;;;;;;5007546;28;20457;-66
2022/04/20 13:11:15;;;;;;;4.10;0.35;;;29.20;25.90;;;;;;5023402;28;20042;-64
2022/04/20 13:13:42;;;;;;;0.52;0.10;;;29.20;25.90;;;;;;5022064;28;20068;-64
2022/04/20 13:16:10;;;;;;;5.68;0.20;;;29.30;25.90;;;;;;5022424;28;20053;-65
2022/04/20 13:18:39;;;;;;;9.10;0.40;;;29.40;25.90;;;;;;5022906;28;20051;-66
2022/04/20 13:21:06;;;;;;;1.00;0.10;;;29.40;25.70;;;;;;5023338;28;20087;-64
2022/04/20 13:23:34;;;;;;;0.20;0.10;;;29.50;25.40;;;;;;5024074;28;20067;-63
2022/04/20 13:28:48;;;;;;;7.57;0.10;;;29.50;25.00;;;;;;5020093;28;20552;-63
2022/04/20 13:31:16;;;;;;;1.55;0.20;;;29.50;25.00;;;;;;5019690;28;20093;-64
2022/04/20 13:33:43;;;;;;;2.95;0.30;;;29.50;25.10;;;;;;5020511;28;20056;-67
2022/04/20 13:36:10;;;;;;;0.75;0.13;;;29.60;25.20;;;;;;5022127;28;20045;-66
2022/04/20 13:38:38;;;;;;;7.03;0.55;;;29.60;25.20;;;;;;5052237;28;20572;-65
2022/04/20 13:41:05;;;;;;;4.32;1.45;;;29.60;25.00;;;;;;5063258;28;20032;-66
2022/04/20 13:43:32;;;;;;;2.55;0.10;;;29.70;24.80;;;;;;5063970;28;20132;-65
2022/04/20 13:46:00;;;;;;;2.63;0.10;;;29.70;24.70;;;;;;5063089;28;20143;-65
2022/04/20 13:48:27;;;;;;;0.50;0.13;;;29.80;24.60;;;;;;5049494;28;20771;-69
2022/04/20 13:50:55;;;;;;;0.15;0.10;;;29.80;24.70;;;;;;5067180;28;20049;-68
2022/04/20 13:53:22;;;;;;;0.52;0.10;;;29.80;24.70;;;;;;5065549;28;20143;-67
2022/04/20 13:55:49;;;;;;;0.25;0.10;;;29.80;24.50;;;;;;5058368;28;20055;-68
2022/04/20 13:58:16;;;;;;;1.42;0.10;;;29.80;24.30;;;;;;5056255;28;20927;-68
2022/04/20 14:00:43;;;;;;;0.20;0.10;;;29.80;24.20;;;;;;5065835;28;20174;-68
2022/04/20 14:03:12;;;;;;;1.02;1.00;;;29.80;24.20;;;;;;5065156;28;20083;-68